Time;durP1;ratioP1;P1;durP2;ratioP2;P2;SDS_P1;SDS_P2;PMS_P1;PMS_P2;Temp;Humidity;BMP_temperature;BMP_pressure;BME280_temperature;BME280_humidity;BME280_pressure;Samples;Min_cycle;Max_cycle;Signal;HPM_P1;HPM_P2
2024/02/17 00:00:18;;;;;;;11.18;8.82;;;11.60;99.90;;;;;;7378608;19;20788;-75
2024/02/17 00:02:48;;;;;;;10.32;8.70;;;11.60;99.90;;;;;;7377485;19;20502;-75
2024/02/17 00:05:21;;;;;;;10.68;9.57;;;11.70;99.90;;;;;;7379805;19;20018;-76
2024/02/17 00:07:52;;;;;;;12.98;8.98;;;11.70;99.90;;;;;;7377777;19;20049;-76
2024/02/17 00:10:24;;;;;;;11.95;8.65;;;11.60;99.90;;;;;;7379453;19;20059;-75
2024/02/17 00:12:54;;;;;;;9.88;8.15;;;11.60;99.90;;;;;;7375713;19;20010;-75
2024/02/17 00:15:25;;;;;;;12.55;8.82;;;11.70;99.90;;;;;;7378059;19;22479;-75
2024/02/17 00:17:55;;;;;;;10.02;8.52;;;11.70;99.90;;;;;;7378589;19;21558;-76
2024/02/17 00:20:27;;;;;;;9.68;8.02;;;11.70;99.90;;;;;;7380041;19;20165;-75
2024/02/17 00:22:58;;;;;;;9.05;8.07;;;11.70;99.90;;;;;;7376151;19;20030;-76
2024/02/17 00:25:28;;;;;;;11.15;7.93;;;11.70;99.90;;;;;;7377272;19;20464;-75
2024/02/17 00:27:58;;;;;;;11.32;8.70;;;11.70;99.90;;;;;;7379101;19;20003;-74
2024/02/17 00:30:28;;;;;;;8.65;7.22;;;11.70;99.90;;;;;;7377509;19;20054;-75
2024/02/17 00:32:58;;;;;;;11.80;7.22;;;11.60;99.90;;;;;;7376104;19;20027;-75
2024/02/17 00:35:30;;;;;;;7.90;6.38;;;11.60;99.90;;;;;;7377990;19;20007;-75
2024/02/17 00:38:01;;;;;;;7.53;6.40;;;11.60;99.90;;;;;;7378736;19;20027;-74
2024/02/17 00:40:31;;;;;;;7.90;5.60;;;11.60;99.90;;;;;;7379658;19;20026;-74
2024/02/17 00:43:01;;;;;;;6.32;5.30;;;11.60;99.90;;;;;;7374597;19;20014;-75
2024/02/17 00:45:31;;;;;;;5.95;5.20;;;11.60;99.90;;;;;;7375148;19;20006;-74
2024/02/17 00:48:01;;;;;;;7.13;4.75;;;11.50;99.90;;;;;;7380110;19;20027;-75
2024/02/17 00:50:34;;;;;;;6.03;4.35;;;11.50;99.90;;;;;;7376489;19;20011;-75
2024/02/17 00:53:04;;;;;;;4.90;4.03;;;11.50;99.90;;;;;;7376543;19;20015;-77
2024/02/17 00:55:34;;;;;;;3.65;3.35;;;11.50;99.90;;;;;;7377600;19;20006;-76
2024/02/17 00:58:04;;;;;;;3.65;3.28;;;11.50;99.90;;;;;;7378146;19;20081;-77
2024/02/17 01:00:35;;;;;;;4.22;3.15;;;11.50;99.90;;;;;;7378742;19;20006;-76
2024/02/17 01:03:10;;;;;;;3.88;2.67;;;11.50;99.90;;;;;;7367714;19;20003;-74
2024/02/17 01:05:44;;;;;;;3.78;2.80;;;11.50;99.90;;;;;;7375331;19;20002;-75
2024/02/17 01:08:20;;;;;;;3.38;2.40;;;11.40;99.90;;;;;;7376004;19;20028;-74
2024/02/17 01:11:07;;;;;;;2.42;2.08;;;11.40;99.90;;;;;;7379164;19;20066;-74
2024/02/17 01:13:45;;;;;;;3.10;2.20;;;11.40;99.90;;;;;;7371241;19;20032;-74
2024/02/17 01:16:33;;;;;;;4.03;1.90;;;11.40;99.90;;;;;;7371351;19;20015;-74
2024/02/17 01:19:05;;;;;;;1.60;1.50;;;11.40;99.90;;;;;;7376057;19;20014;-74
2024/02/17 01:21:42;;;;;;;1.55;1.40;;;11.40;99.90;;;;;;7372859;19;20010;-75
2024/02/17 01:24:29;;;;;;;1.80;1.58;;;11.40;99.90;;;;;;7373392;19;20093;-75
2024/02/17 01:27:00;;;;;;;1.52;1.30;;;11.40;99.90;;;;;;7376383;19;20010;-74
2024/02/17 01:29:33;;;;;;;1.77;1.13;;;11.40;99.90;;;;;;7375622;19;20010;-74
2024/02/17 01:32:16;;;;;;;3.03;1.50;;;11.40;99.90;;;;;;7368744;19;20093;-74
2024/02/17 01:34:47;;;;;;;1.90;1.48;;;11.40;99.90;;;;;;7375686;19;20010;-74
2024/02/17 01:37:21;;;;;;;1.92;1.38;;;11.40;99.90;;;;;;7377589;19;20032;-74
2024/02/17 01:39:53;;;;;;;1.55;1.38;;;11.40;99.90;;;;;;7376127;19;20018;-74
2024/02/17 01:42:25;;;;;;;1.77;1.30;;;11.40;99.90;;;;;;7373607;19;20039;-74
2024/02/17 01:45:05;;;;;;;2.35;1.77;;;11.40;99.90;;;;;;7375717;19;20006;-74
2024/02/17 01:47:48;;;;;;;1.60;1.30;;;11.40;99.90;;;;;;7369692;19;20017;-74
2024/02/17 01:50:37;;;;;;;2.53;1.30;;;11.40;99.90;;;;;;7377846;19;20017;-74
2024/02/17 01:53:30;;;;;;;1.63;1.20;;;11.40;99.90;;;;;;6864536;19;2004534;-74
2024/02/17 01:56:01;;;;;;;4.20;2.50;;;11.30;99.90;;;;;;7375943;19;20018;-74
2024/02/17 01:58:34;;;;;;;2.47;2.20;;;11.30;99.90;;;;;;7380421;19;20010;-74
2024/02/17 02:01:20;;;;;;;4.32;3.38;;;11.30;99.90;;;;;;6871189;19;2004648;-73
2024/02/17 02:04:10;;;;;;;4.05;3.65;;;11.20;99.90;;;;;;7379070;19;20006;-74
2024/02/17 02:06:54;;;;;;;5.22;4.63;;;11.20;99.90;;;;;;7382514;19;20015;-74
2024/02/17 02:09:47;;;;;;;5.47;4.95;;;11.20;99.90;;;;;;7375571;19;20085;-74
2024/02/17 02:12:17;;;;;;;8.32;6.60;;;11.20;99.90;;;;;;7382516;19;20464;-73
2024/02/17 02:15:04;;;;;;;9.15;6.57;;;11.10;99.90;;;;;;7381932;19;20014;-73
2024/02/17 02:17:36;;;;;;;8.02;6.93;;;11.10;99.90;;;;;;7382797;19;20014;-73
2024/02/17 02:20:08;;;;;;;8.95;6.93;;;11.00;99.90;;;;;;7380154;19;20051;-73
2024/02/17 02:22:39;;;;;;;9.13;7.80;;;11.00;99.90;;;;;;7380632;19;20027;-73
2024/02/17 02:25:26;;;;;;;10.82;9.02;;;11.00;99.90;;;;;;7381911;19;20011;-75
2024/02/17 02:27:59;;;;;;;12.32;10.10;;;11.00;99.90;;;;;;7381112;19;20016;-74
2024/02/17 02:30:30;;;;;;;13.40;10.27;;;10.90;99.90;;;;;;7382817;19;20002;-74
2024/02/17 02:33:00;;;;;;;12.65;10.27;;;10.90;99.90;;;;;;7379423;19;20035;-75
2024/02/17 02:35:31;;;;;;;15.05;11.45;;;10.80;99.90;;;;;;7380234;19;20006;-75
2024/02/17 02:38:02;;;;;;;16.52;12.05;;;10.80;99.90;;;;;;7382082;19;20098;-75
2024/02/17 02:40:32;;;;;;;15.95;11.60;;;10.80;99.90;;;;;;7382296;19;20115;-75
2024/02/17 02:43:05;;;;;;;15.05;12.00;;;10.80;99.90;;;;;;7378753;19;20011;-74
2024/02/17 02:45:37;;;;;;;16.10;11.93;;;10.70;99.90;;;;;;7379115;19;20017;-75
2024/02/17 02:48:08;;;;;;;18.58;13.18;;;10.70;99.90;;;;;;7378043;19;20018;-75
2024/02/17 02:50:39;;;;;;;17.00;12.85;;;10.70;99.90;;;;;;7382213;19;19998;-75
2024/02/17 02:53:10;;;;;;;19.92;13.43;;;10.80;99.90;;;;;;7379557;19;20114;-75
2024/02/17 02:55:40;;;;;;;18.95;13.20;;;10.70;99.90;;;;;;7378957;19;20395;-74
2024/02/17 02:58:13;;;;;;;19.35;13.27;;;10.70;99.90;;;;;;7381089;19;20081;-74
2024/02/17 03:00:43;;;;;;;18.75;13.38;;;10.70;99.90;;;;;;7381993;19;20007;-75
2024/02/17 03:03:13;;;;;;;21.52;14.98;;;10.70;99.90;;;;;;7378178;19;20010;-74
2024/02/17 03:05:43;;;;;;;20.75;14.65;;;10.70;99.90;;;;;;7378148;19;20023;-74
2024/02/17 03:08:13;;;;;;;21.70;15.35;;;10.60;99.90;;;;;;7381281;19;20417;-75
2024/02/17 03:10:44;;;;;;;20.58;13.95;;;10.60;99.90;;;;;;7377126;19;20010;-74
2024/02/17 03:13:17;;;;;;;23.00;15.75;;;10.60;99.90;;;;;;7377751;19;20010;-74
2024/02/17 03:15:48;;;;;;;24.00;16.23;;;10.60;99.90;;;;;;7379784;19;20014;-74
2024/02/17 03:18:18;;;;;;;22.95;15.85;;;10.60;99.90;;;;;;7379353;19;20334;-74
2024/02/17 03:20:49;;;;;;;26.45;16.70;;;10.60;99.90;;;;;;7381298;19;20007;-75
2024/02/17 03:23:19;;;;;;;27.73;18.35;;;10.60;99.90;;;;;;7379246;19;20014;-75
2024/02/17 03:25:49;;;;;;;27.33;17.58;;;10.60;99.90;;;;;;7380431;19;20168;-74
2024/02/17 03:28:22;;;;;;;28.40;17.88;;;10.60;99.90;;;;;;7380438;19;20090;-75
2024/02/17 03:30:52;;;;;;;30.13;17.70;;;10.50;99.90;;;;;;7380548;19;20082;-73
2024/02/17 03:33:22;;;;;;;24.60;17.17;;;10.60;99.90;;;;;;7377485;19;20006;-74
2024/02/17 03:35:52;;;;;;;24.33;15.55;;;10.60;99.90;;;;;;7377867;19;20027;-74
2024/02/17 03:38:23;;;;;;;20.40;14.25;;;10.50;99.90;;;;;;7380714;19;20042;-74
2024/02/17 03:40:53;;;;;;;19.67;13.82;;;10.50;99.90;;;;;;7378867;19;20007;-74
2024/02/17 03:43:26;;;;;;;21.58;14.88;;;10.50;99.90;;;;;;7377386;19;20477;-73
2024/02/17 03:45:56;;;;;;;20.77;14.25;;;10.50;99.90;;;;;;7378381;19;20010;-74
2024/02/17 03:48:27;;;;;;;24.25;15.95;;;10.50;99.90;;;;;;7379930;19;20014;-74
2024/02/17 03:50:57;;;;;;;26.95;17.23;;;10.50;99.90;;;;;;7379416;19;20010;-74
2024/02/17 03:53:27;;;;;;;28.60;18.85;;;10.50;99.90;;;;;;7377496;19;20010;-74
2024/02/17 03:55:57;;;;;;;31.08;19.95;;;10.50;99.90;;;;;;7377562;19;20487;-73
2024/02/17 03:58:30;;;;;;;32.53;20.88;;;10.50;99.90;;;;;;7379576;19;20021;-74
2024/02/17 04:01:00;;;;;;;32.78;21.40;;;10.50;99.90;;;;;;7379240;19;20456;-73
2024/02/17 04:03:31;;;;;;;31.83;21.60;;;10.50;99.90;;;;;;7376752;19;20098;-74
2024/02/17 04:06:01;;;;;;;33.65;21.65;;;10.50;99.90;;;;;;7377963;19;20398;-74
2024/02/17 04:08:31;;;;;;;36.28;22.13;;;10.40;99.90;;;;;;7379352;19;20026;-73
2024/02/17 04:11:01;;;;;;;34.63;21.50;;;10.50;99.90;;;;;;7379159;19;20042;-73
2024/02/17 04:13:34;;;;;;;35.47;21.52;;;10.50;99.90;;;;;;7377909;19;20022;-74
2024/02/17 04:16:04;;;;;;;38.55;22.38;;;10.50;99.90;;;;;;7378701;19;20019;-73
2024/02/17 04:18:34;;;;;;;33.38;21.60;;;10.50;99.90;;;;;;7379167;19;20408;-73
2024/02/17 04:21:05;;;;;;;34.03;22.38;;;10.40;99.90;;;;;;7377626;19;20019;-74
2024/02/17 04:23:36;;;;;;;37.58;23.83;;;10.40;99.90;;;;;;7376043;19;20011;-74
2024/02/17 04:26:09;;;;;;;34.97;22.25;;;10.40;99.90;;;;;;7377799;19;20498;-74
2024/02/17 04:28:42;;;;;;;36.55;22.42;;;10.40;99.90;;;;;;7380856;19;20011;-74
2024/02/17 04:31:12;;;;;;;37.38;22.25;;;10.40;99.90;;;;;;7376264;19;20069;-74
2024/02/17 04:33:42;;;;;;;33.83;21.85;;;10.30;99.90;;;;;;7376412;19;20025;-73
2024/02/17 04:36:13;;;;;;;38.90;23.35;;;10.30;99.90;;;;;;7377920;19;20467;-73
2024/02/17 04:38:43;;;;;;;39.30;23.15;;;10.30;99.90;;;;;;7379242;19;20537;-73
2024/02/17 04:41:13;;;;;;;38.30;23.15;;;10.30;99.90;;;;;;7377458;19;20008;-72
2024/02/17 04:43:47;;;;;;;39.33;24.05;;;10.30;99.90;;;;;;7373921;19;19998;-72
2024/02/17 04:46:17;;;;;;;44.80;26.73;;;10.30;99.90;;;;;;7377306;19;20014;-73
2024/02/17 04:48:47;;;;;;;39.05;24.23;;;10.30;99.90;;;;;;7377665;19;20018;-73
2024/02/17 04:51:17;;;;;;;39.00;24.13;;;10.30;99.90;;;;;;7376854;19;20018;-72
2024/02/17 04:53:48;;;;;;;41.88;24.90;;;10.30;99.90;;;;;;7374745;19;20010;-73
2024/02/17 04:56:18;;;;;;;43.25;25.33;;;10.30;99.90;;;;;;7376259;19;20006;-73
2024/02/17 04:58:50;;;;;;;42.35;25.83;;;10.30;99.90;;;;;;7378664;19;20091;-73
2024/02/17 05:01:22;;;;;;;42.03;26.50;;;10.30;99.90;;;;;;7378084;19;20014;-73
2024/02/17 05:03:53;;;;;;;43.78;25.23;;;10.20;99.90;;;;;;7375173;19;20784;-73
2024/02/17 05:06:23;;;;;;;39.05;23.70;;;10.20;99.90;;;;;;7377049;19;20110;-72
2024/02/17 05:08:53;;;;;;;44.17;26.20;;;10.30;99.90;;;;;;7376993;19;20018;-73
2024/02/17 05:11:23;;;;;;;46.13;26.27;;;10.30;99.90;;;;;;7376757;19;20014;-74
2024/02/17 05:13:56;;;;;;;42.92;25.25;;;10.30;99.90;;;;;;7373824;19;20014;-73
2024/02/17 05:16:26;;;;;;;40.38;25.00;;;10.20;99.90;;;;;;7375611;19;20090;-73
2024/02/17 05:18:56;;;;;;;38.35;23.92;;;10.20;99.90;;;;;;7376518;19;20015;-73
2024/02/17 05:21:26;;;;;;;42.13;25.83;;;10.20;99.90;;;;;;7377457;19;20116;-74
2024/02/17 05:23:56;;;;;;;45.10;25.38;;;10.20;99.90;;;;;;7373365;19;20771;-74
2024/02/17 05:26:26;;;;;;;43.67;26.08;;;10.20;99.90;;;;;;7375938;19;20372;-74
2024/02/17 05:28:58;;;;;;;42.92;25.05;;;10.20;99.90;;;;;;7377128;19;20032;-74
2024/02/17 05:31:30;;;;;;;44.30;24.92;;;10.20;99.90;;;;;;7376668;19;20019;-73
2024/02/17 05:34:00;;;;;;;44.45;25.27;;;10.10;99.90;;;;;;7378177;19;20015;-73
2024/02/17 05:36:31;;;;;;;39.80;23.85;;;10.10;99.90;;;;;;7382795;19;20466;-73
2024/02/17 05:39:02;;;;;;;43.42;24.63;;;10.10;99.90;;;;;;7383729;19;20006;-74
2024/02/17 05:41:32;;;;;;;44.97;25.67;;;10.00;99.90;;;;;;7381789;19;20467;-73
2024/02/17 05:44:04;;;;;;;43.67;24.10;;;10.00;99.90;;;;;;7380705;19;20017;-74
2024/02/17 05:46:34;;;;;;;41.65;24.67;;;9.90;99.90;;;;;;7383020;19;22411;-73
2024/02/17 05:49:04;;;;;;;41.95;24.52;;;9.90;99.90;;;;;;7381807;19;24448;-73
2024/02/17 05:51:35;;;;;;;42.53;24.48;;;9.80;99.90;;;;;;7382492;19;21222;-73
2024/02/17 05:54:05;;;;;;;45.97;24.65;;;9.80;99.90;;;;;;7379977;19;20063;-73
2024/02/17 05:56:35;;;;;;;41.67;24.25;;;9.80;99.90;;;;;;7381130;19;20483;-73
2024/02/17 05:59:07;;;;;;;41.15;24.33;;;9.70;99.90;;;;;;7383548;19;20420;-73
2024/02/17 06:01:37;;;;;;;42.40;24.17;;;9.70;99.90;;;;;;7382670;19;20007;-73
2024/02/17 06:04:07;;;;;;;49.65;26.45;;;9.60;99.90;;;;;;7381126;19;20028;-73
2024/02/17 06:06:38;;;;;;;46.67;25.85;;;9.60;99.90;;;;;;7382044;19;20046;-73
2024/02/17 06:09:08;;;;;;;47.65;25.50;;;9.60;99.90;;;;;;7383561;19;20086;-73
2024/02/17 06:11:38;;;;;;;47.13;26.20;;;9.50;99.90;;;;;;7382097;19;20010;-74
2024/02/17 06:14:11;;;;;;;49.53;25.85;;;9.50;99.90;;;;;;7379678;19;20106;-73
2024/02/17 06:16:41;;;;;;;50.05;27.55;;;9.50;99.90;;;;;;7382347;19;20014;-73
2024/02/17 06:21:54;;;;;;;48.75;27.20;;;9.40;99.90;;;;;;7381920;19;20018;-74
2024/02/17 06:24:24;;;;;;;50.72;27.25;;;9.40;99.90;;;;;;7381658;19;20010;-73
2024/02/17 06:26:54;;;;;;;46.47;25.50;;;9.40;99.90;;;;;;7383333;19;20023;-73
2024/02/17 06:29:27;;;;;;;45.90;25.60;;;9.40;99.90;;;;;;7382473;19;20049;-73
2024/02/17 06:31:57;;;;;;;45.58;26.45;;;9.40;99.90;;;;;;7383235;19;20405;-72
2024/02/17 06:34:27;;;;;;;47.92;26.13;;;9.50;99.90;;;;;;7381552;19;20014;-73
2024/02/17 06:36:57;;;;;;;45.92;25.77;;;9.50;99.90;;;;;;7381282;19;20011;-73
2024/02/17 06:39:27;;;;;;;47.67;26.20;;;9.50;99.90;;;;;;7382695;19;20476;-74
2024/02/17 06:41:57;;;;;;;47.58;26.40;;;9.50;99.90;;;;;;7382299;19;20010;-73
2024/02/17 06:44:30;;;;;;;48.97;26.48;;;9.50;99.90;;;;;;7379750;19;20021;-74
2024/02/17 06:47:00;;;;;;;44.30;25.67;;;9.50;99.90;;;;;;7381846;19;20022;-73
2024/02/17 06:49:30;;;;;;;46.95;25.75;;;9.50;99.90;;;;;;7383137;19;20030;-74
2024/02/17 06:52:00;;;;;;;42.28;24.98;;;9.50;99.90;;;;;;7380844;19;20030;-74
2024/02/17 06:54:30;;;;;;;39.80;24.13;;;9.50;99.90;;;;;;7379970;19;20022;-73
2024/02/17 06:56:57;;;;;;;42.70;25.05;;;9.50;99.90;;;;;;7380421;19;20464;-73
2024/02/17 06:59:30;;;;;;;41.88;24.15;;;9.60;99.90;;;;;;7379958;19;20036;-73
2024/02/17 07:02:00;;;;;;;43.20;25.05;;;9.60;99.90;;;;;;7381210;19;20042;-74
2024/02/17 07:04:30;;;;;;;46.03;26.05;;;9.60;99.90;;;;;;7381236;19;20093;-73
2024/02/17 07:07:00;;;;;;;41.35;24.38;;;9.60;99.90;;;;;;7382256;19;20040;-74
2024/02/17 07:09:31;;;;;;;42.80;23.90;;;9.60;99.90;;;;;;7381487;19;20025;-74
2024/02/17 07:12:01;;;;;;;38.75;22.88;;;9.70;99.90;;;;;;7383292;19;20021;-74
2024/02/17 07:14:34;;;;;;;40.03;24.48;;;9.80;99.90;;;;;;7378728;19;20007;-73
2024/02/17 07:17:04;;;;;;;33.88;20.88;;;9.90;99.90;;;;;;7380646;19;20038;-73
2024/02/17 07:19:34;;;;;;;31.08;19.92;;;9.90;99.90;;;;;;7382042;19;20082;-74
2024/02/17 07:22:08;;;;;;;27.85;18.65;;;9.90;99.90;;;;;;7381643;19;20475;-73
2024/02/17 07:24:38;;;;;;;33.20;19.23;;;10.00;99.90;;;;;;7378009;19;20010;-73
2024/02/17 07:27:08;;;;;;;29.08;18.42;;;10.00;99.90;;;;;;7380150;19;20002;-73
2024/02/17 07:29:42;;;;;;;30.73;18.70;;;10.10;99.90;;;;;;7380397;19;20015;-73
2024/02/17 07:32:13;;;;;;;29.10;18.90;;;10.30;99.90;;;;;;7372139;19;20030;-73
2024/02/17 07:34:44;;;;;;;26.67;16.83;;;10.40;99.90;;;;;;7368824;19;20475;-73
2024/02/17 07:37:14;;;;;;;26.58;17.48;;;10.40;59.90;;;;;;7371327;19;20041;-72
2024/02/17 07:39:45;;;;;;;26.95;17.00;;;10.50;49.70;;;;;;7369823;19;20031;-73
2024/02/17 07:42:15;;;;;;;25.33;16.67;;;10.60;37.30;;;;;;7371505;19;20006;-72
2024/02/17 07:44:48;;;;;;;29.83;17.85;;;10.70;32.10;;;;;;7371090;19;20032;-72
2024/02/17 07:47:18;;;;;;;26.70;17.50;;;10.70;21.40;;;;;;7372682;19;20014;-74
2024/02/17 07:49:48;;;;;;;25.77;16.40;;;10.60;20.60;;;;;;7371845;19;20582;-72
2024/02/17 07:52:18;;;;;;;24.92;16.85;;;10.50;11.30;;;;;;7371680;19;20082;-73
2024/02/17 07:54:48;;;;;;;25.00;16.83;;;10.60;16.90;;;;;;7370510;19;20032;-72
2024/02/17 07:57:18;;;;;;;22.27;15.73;;;10.60;12.10;;;;;;7365051;19;20007;-73
2024/02/17 07:59:51;;;;;;;25.00;16.83;;;10.50;1.00;;;;;;7371285;19;20019;-72
2024/02/17 08:02:21;;;;;;;22.98;16.00;;;10.60;2.60;;;;;;7371816;19;20018;-73
2024/02/17 08:04:52;;;;;;;25.83;16.90;;;10.60;5.90;;;;;;7369070;19;20030;-72
2024/02/17 08:07:22;;;;;;;23.58;16.15;;;10.50;2.70;;;;;;7368996;19;20021;-74
2024/02/17 08:09:53;;;;;;;23.80;16.30;;;10.40;3.10;;;;;;7370766;19;20355;-73
2024/02/17 08:12:23;;;;;;;25.65;17.20;;;10.40;1.00;;;;;;7369992;19;21039;-72
2024/02/17 08:14:56;;;;;;;23.00;16.17;;;10.40;1.00;;;;;;7369828;19;20240;-74
2024/02/17 08:17:27;;;;;;;24.48;17.02;;;10.50;1.00;;;;;;7370830;19;20071;-72
2024/02/17 08:19:57;;;;;;;22.40;16.80;;;10.40;1.00;;;;;;7372821;19;20010;-72
2024/02/17 08:22:30;;;;;;;26.55;17.48;;;10.50;1.00;;;;;;7369625;19;20006;-72
2024/02/17 08:25:00;;;;;;;27.05;17.40;;;10.40;1.00;;;;;;7371029;19;20006;-72
2024/02/17 08:27:31;;;;;;;25.00;16.95;;;10.40;1.00;;;;;;7371742;19;20378;-73
2024/02/17 08:30:04;;;;;;;23.40;16.63;;;10.40;1.00;;;;;;7370903;19;20010;-72
2024/02/17 08:32:34;;;;;;;25.42;16.45;;;10.30;1.00;;;;;;7371943;19;20014;-70
2024/02/17 08:35:05;;;;;;;23.67;16.02;;;10.40;3.40;;;;;;7371430;19;20017;-73
2024/02/17 08:37:35;;;;;;;23.92;16.45;;;10.60;1.00;;;;;;7372492;19;20010;-71
2024/02/17 08:40:07;;;;;;;23.50;15.02;;;10.50;1.00;;;;;;7372130;19;20010;-72
2024/02/17 08:42:37;;;;;;;21.42;14.73;;;10.70;1.00;;;;;;7367947;19;20011;-72
2024/02/17 08:45:10;;;;;;;22.15;15.18;;;10.80;1.00;;;;;;7366741;19;20014;-73
2024/02/17 08:47:40;;;;;;;21.10;14.50;;;10.80;1.00;;;;;;7367227;19;20043;-72
2024/02/17 08:50:11;;;;;;;19.05;14.32;;;10.70;1.00;;;;;;7367585;19;20031;-72
2024/02/17 08:52:41;;;;;;;23.73;15.55;;;10.90;1.00;;;;;;7368936;19;20011;-74
2024/02/17 08:55:11;;;;;;;21.75;15.25;;;10.90;1.00;;;;;;7370464;19;20010;-73
2024/02/17 08:57:41;;;;;;;21.27;14.52;;;11.10;1.00;;;;;;7368813;19;20035;-72
2024/02/17 09:00:15;;;;;;;19.33;13.23;;;11.10;1.00;;;;;;7369414;19;20025;-72
2024/02/17 09:02:46;;;;;;;17.92;13.23;;;11.00;1.00;;;;;;7365861;19;20042;-72
2024/02/17 09:05:16;;;;;;;19.48;13.68;;;11.10;1.00;;;;;;7368032;19;20468;-72
2024/02/17 09:07:46;;;;;;;18.20;13.57;;;10.90;1.00;;;;;;7369023;19;20373;-72
2024/02/17 09:10:17;;;;;;;20.13;14.25;;;11.00;1.00;;;;;;7367836;19;20020;-72
2024/02/17 09:12:47;;;;;;;21.15;15.60;;;11.20;1.00;;;;;;7366377;19;20018;-73
2024/02/17 09:15:20;;;;;;;21.08;14.75;;;11.10;1.00;;;;;;7366825;19;20014;-72
2024/02/17 09:17:50;;;;;;;20.85;14.45;;;11.30;1.00;;;;;;7359394;19;20899;-72
2024/02/17 09:20:21;;;;;;;20.27;14.13;;;11.60;1.00;;;;;;7353858;19;20010;-70
2024/02/17 09:22:51;;;;;;;24.13;13.82;;;11.50;1.00;;;;;;7350566;19;20094;-72
2024/02/17 09:25:21;;;;;;;21.50;14.68;;;11.60;1.00;;;;;;7352005;19;20010;-72
2024/02/17 09:27:51;;;;;;;21.02;14.23;;;11.30;1.00;;;;;;7354931;19;20048;-70
2024/02/17 09:30:23;;;;;;;23.00;14.32;;;11.10;1.00;;;;;;7354966;19;20025;-71
2024/02/17 09:32:53;;;;;;;22.80;15.07;;;11.20;1.00;;;;;;7352357;19;20019;-70
2024/02/17 09:35:24;;;;;;;23.73;15.20;;;11.30;1.00;;;;;;7353183;19;20010;-71
2024/02/17 09:37:54;;;;;;;19.73;14.73;;;11.60;1.00;;;;;;7356500;19;20519;-72
2024/02/17 09:40:24;;;;;;;18.42;13.65;;;11.40;1.00;;;;;;7356802;19;20011;-72
2024/02/17 09:42:54;;;;;;;20.00;13.70;;;11.30;1.00;;;;;;7363597;19;20032;-71
2024/02/17 09:45:27;;;;;;;18.95;14.18;;;11.30;1.00;;;;;;7358149;19;20010;-72
2024/02/17 09:47:58;;;;;;;24.95;15.10;;;11.50;1.00;;;;;;7365517;19;20010;-72
2024/02/17 09:50:30;;;;;;;19.10;14.35;;;11.50;1.00;;;;;;7367365;19;20043;-71
2024/02/17 09:53:01;;;;;;;18.85;13.70;;;11.50;1.00;;;;;;7363974;19;20007;-72
2024/02/17 09:55:35;;;;;;;20.30;14.35;;;11.90;1.00;;;;;;7363041;19;20011;-71
2024/02/17 09:58:06;;;;;;;17.98;13.48;;;11.80;1.00;;;;;;7364318;19;20032;-72
2024/02/17 10:00:39;;;;;;;15.15;11.68;;;12.30;1.00;;;;;;7363407;19;20018;-72
2024/02/17 10:03:10;;;;;;;15.00;11.10;;;12.40;1.00;;;;;;7351153;19;20117;-72
2024/02/17 10:05:40;;;;;;;13.25;10.95;;;12.40;1.00;;;;;;7349051;19;20015;-72
2024/02/17 10:08:10;;;;;;;15.18;11.18;;;12.40;1.00;;;;;;7353714;19;20421;-72
2024/02/17 10:10:40;;;;;;;11.88;10.23;;;11.90;1.00;;;;;;7353219;19;20356;-71
2024/02/17 10:13:17;;;;;;;15.13;11.65;;;11.60;1.00;;;;;;7351765;19;20032;-71
2024/02/17 10:15:50;;;;;;;20.70;12.70;;;11.70;1.00;;;;;;7350466;19;20011;-71
2024/02/17 10:18:20;;;;;;;18.17;13.93;;;11.70;1.00;;;;;;7352169;19;20010;-72
2024/02/17 10:20:56;;;;;;;16.23;11.93;;;11.90;1.00;;;;;;7360046;19;20011;-71
2024/02/17 10:23:27;;;;;;;16.10;12.25;;;11.80;1.00;;;;;;7357613;19;20505;-72
2024/02/17 10:25:59;;;;;;;17.20;11.95;;;11.90;1.00;;;;;;7354010;19;20003;-72
2024/02/17 10:28:30;;;;;;;19.67;12.77;;;12.00;1.00;;;;;;7356273;19;20033;-71
2024/02/17 10:31:05;;;;;;;16.95;12.07;;;11.80;1.00;;;;;;7357995;19;20390;-71
2024/02/17 10:33:35;;;;;;;18.13;12.57;;;11.90;1.00;;;;;;7357293;19;20086;-71
2024/02/17 10:36:07;;;;;;;15.02;11.25;;;11.80;1.00;;;;;;7353197;19;20014;-72
2024/02/17 10:38:38;;;;;;;17.92;11.50;;;11.70;1.00;;;;;;7356846;19;20094;-71
2024/02/17 10:41:08;;;;;;;21.08;13.05;;;11.80;1.00;;;;;;7354023;19;20072;-71
2024/02/17 10:43:42;;;;;;;16.73;11.82;;;11.90;1.00;;;;;;7357383;19;20312;-72
2024/02/17 10:46:22;;;;;;;13.48;10.25;;;11.70;1.00;;;;;;7354117;19;20505;-72
2024/02/17 10:49:00;;;;;;;14.35;10.68;;;11.90;1.00;;;;;;7356434;19;20056;-72
2024/02/17 10:51:32;;;;;;;16.48;11.45;;;12.00;1.00;;;;;;7355235;19;20351;-72
2024/02/17 10:54:03;;;;;;;17.55;11.57;;;11.90;1.00;;;;;;7354273;19;20047;-71
2024/02/17 10:56:35;;;;;;;14.60;10.85;;;12.10;1.00;;;;;;7352804;19;20094;-71
2024/02/17 10:59:06;;;;;;;15.27;10.75;;;12.00;1.00;;;;;;7356301;19;20054;-75
2024/02/17 11:01:39;;;;;;;16.38;12.82;;;11.80;1.00;;;;;;7356706;19;20013;-71
2024/02/17 11:04:10;;;;;;;16.08;11.68;;;11.60;1.00;;;;;;7353187;19;20010;-71
2024/02/17 11:06:41;;;;;;;18.33;13.40;;;11.50;1.00;;;;;;7352316;19;20007;-72
2024/02/17 11:09:12;;;;;;;17.77;12.13;;;11.60;1.00;;;;;;7356370;19;20445;-72
2024/02/17 11:11:42;;;;;;;18.80;13.15;;;11.70;1.00;;;;;;7356776;19;20027;-72
2024/02/17 11:14:41;;;;;;;18.92;12.63;;;12.00;1.00;;;;;;7355851;19;20102;-71
2024/02/17 11:17:14;;;;;;;15.27;11.55;;;12.30;1.00;;;;;;6846231;19;2005120;-71
2024/02/17 11:19:50;;;;;;;14.07;10.80;;;12.10;1.00;;;;;;7356250;19;20060;-70
2024/02/17 11:22:28;;;;;;;16.48;11.25;;;12.40;1.00;;;;;;7356955;19;20013;-70
2024/02/17 11:25:00;;;;;;;12.05;9.38;;;12.60;1.00;;;;;;7348436;19;20374;-71
2024/02/17 11:27:33;;;;;;;14.90;8.57;;;12.60;1.00;;;;;;7352350;19;20021;-71
2024/02/17 11:30:07;;;;;;;17.67;9.70;;;12.50;1.00;;;;;;7352835;19;20393;-71
2024/02/17 11:32:42;;;;;;;13.07;9.32;;;12.80;1.00;;;;;;7354505;19;20103;-71
2024/02/17 11:35:16;;;;;;;14.38;9.27;;;12.70;1.00;;;;;;7352333;19;20010;-71
2024/02/17 11:37:49;;;;;;;;;;;12.60;1.00;;;;;;7355453;19;20029;-71
2024/02/17 11:40:21;;;;;;;15.48;9.25;;;12.70;1.00;;;;;;7356400;19;20295;-72
2024/02/17 11:42:54;;;;;;;13.40;9.27;;;12.80;1.00;;;;;;7355607;19;20014;-72
2024/02/17 11:45:26;;;;;;;9.68;8.32;;;12.50;1.00;;;;;;7355048;19;20355;-72
2024/02/17 11:47:59;;;;;;;11.55;7.63;;;13.20;1.00;;;;;;7353323;19;20014;-71
2024/02/17 11:50:29;;;;;;;11.18;7.45;;;13.30;1.00;;;;;;7355826;19;20018;-71
2024/02/17 11:53:02;;;;;;;9.10;7.20;;;12.90;1.00;;;;;;7352442;19;20007;-72
2024/02/17 11:55:33;;;;;;;11.02;7.60;;;13.10;1.00;;;;;;7352163;19;20017;-72
2024/02/17 11:58:08;;;;;;;8.90;6.90;;;13.40;1.00;;;;;;7354782;19;20527;-72
2024/02/17 12:00:41;;;;;;;8.82;6.40;;;13.30;1.00;;;;;;7355704;19;20100;-71
2024/02/17 12:03:14;;;;;;;10.88;7.20;;;13.20;1.00;;;;;;7352632;19;20032;-72
2024/02/17 12:05:45;;;;;;;11.50;7.55;;;13.10;1.00;;;;;;7350590;19;20769;-72
2024/02/17 12:08:16;;;;;;;9.93;6.53;;;13.10;1.00;;;;;;7355791;19;20014;-70
2024/02/17 12:10:48;;;;;;;9.15;7.30;;;12.60;1.00;;;;;;7354334;19;20410;-73
2024/02/17 12:13:19;;;;;;;8.98;7.05;;;12.60;1.00;;;;;;7354679;19;20018;-71
2024/02/17 12:15:50;;;;;;;8.15;6.32;;;12.80;1.00;;;;;;7353812;19;20035;-71
2024/02/17 12:18:24;;;;;;;10.38;6.53;;;12.90;1.00;;;;;;7356262;19;20490;-72
2024/02/17 12:20:55;;;;;;;9.68;6.70;;;12.60;1.00;;;;;;7355342;19;20017;-71
2024/02/17 12:23:25;;;;;;;9.95;6.25;;;12.40;1.00;;;;;;7352894;19;20692;-71
2024/02/17 12:25:56;;;;;;;9.55;6.43;;;12.50;1.00;;;;;;7351335;19;21176;-71
2024/02/17 12:28:27;;;;;;;9.80;7.63;;;12.80;1.00;;;;;;7353135;19;20167;-71
2024/02/17 12:30:58;;;;;;;12.00;9.18;;;12.70;1.00;;;;;;7353354;19;20562;-71
2024/02/17 12:33:30;;;;;;;11.13;9.27;;;12.40;1.00;;;;;;7356671;19;20098;-72
2024/02/17 12:36:01;;;;;;;12.75;8.38;;;12.60;1.00;;;;;;7352465;19;20025;-70
2024/02/17 12:38:31;;;;;;;11.25;8.77;;;12.60;1.00;;;;;;7355128;19;20006;-71
2024/02/17 12:41:03;;;;;;;11.70;9.00;;;12.70;1.00;;;;;;7353527;19;20087;-70
2024/02/17 12:43:34;;;;;;;12.52;8.45;;;12.70;1.00;;;;;;7355770;19;20011;-71
2024/02/17 12:46:22;;;;;;;12.23;8.32;;;12.50;1.00;;;;;;7349488;19;20028;-72
2024/02/17 12:48:55;;;;;;;10.57;8.35;;;12.70;1.00;;;;;;7355415;19;20443;-71
2024/02/17 12:51:28;;;;;;;7.88;6.13;;;12.80;1.00;;;;;;7350302;19;20022;-73
2024/02/17 12:54:00;;;;;;;7.17;5.93;;;12.60;1.00;;;;;;7352327;19;20455;-71
2024/02/17 12:56:30;;;;;;;9.95;6.78;;;12.80;1.00;;;;;;7350562;19;20960;-71
2024/02/17 12:59:00;;;;;;;6.65;4.35;;;13.10;1.00;;;;;;7353957;19;20093;-71
2024/02/17 13:01:30;;;;;;;6.55;4.70;;;13.10;1.00;;;;;;7354114;19;20503;-71
2024/02/17 13:04:03;;;;;;;8.70;4.07;;;13.10;1.00;;;;;;7351611;19;20031;-72